sensor_id;sensor_type;location;lat;lon;timestamp;pressure;altitude;pressure_sealevel;temperature;humidity
39613;BME280;25303;48.896;13.342;2023-01-27T00:01:49;92669.16;;;1.51;57.96
39613;BME280;25303;48.896;13.342;2023-01-27T00:04:32;92670.75;;;1.41;58.08
39613;BME280;25303;48.896;13.342;2023-01-27T00:07:16;92666.59;;;1.40;58.31
39613;BME280;25303;48.896;13.342;2023-01-27T00:09:59;92666.47;;;1.41;58.26
39613;BME280;25303;48.896;13.342;2023-01-27T00:12:43;92663.53;;;1.34;58.01
39613;BME280;25303;48.896;13.342;2023-01-27T00:15:43;92660.84;;;1.25;57.92
39613;BME280;25303;48.896;13.342;2023-01-27T00:18:26;92664.00;;;1.15;58.04
39613;BME280;25303;48.896;13.342;2023-01-27T00:21:09;92659.25;;;1.11;58.21
39613;BME280;25303;48.896;13.342;2023-01-27T00:24:12;92658.22;;;1.13;58.63
39613;BME280;25303;48.896;13.342;2023-01-27T00:27:12;92658.22;;;1.13;58.36
39613;BME280;25303;48.896;13.342;2023-01-27T00:29:55;92658.16;;;1.15;58.22
39613;BME280;25303;48.896;13.342;2023-01-27T00:32:40;92663.41;;;1.12;58.05
39613;BME280;25303;48.896;13.342;2023-01-27T00:35:41;92666.03;;;1.10;58.16
39613;BME280;25303;48.896;13.342;2023-01-27T00:38:24;92667.88;;;1.08;58.26
39613;BME280;25303;48.896;13.342;2023-01-27T00:41:08;92666.16;;;1.09;58.26
39613;BME280;25303;48.896;13.342;2023-01-27T00:44:01;92664.53;;;1.08;58.26
39613;BME280;25303;48.896;13.342;2023-01-27T00:46:46;92667.06;;;1.08;58.30
39613;BME280;25303;48.896;13.342;2023-01-27T00:49:28;92659.59;;;1.06;58.23
39613;BME280;25303;48.896;13.342;2023-01-27T00:52:11;92668.91;;;1.05;58.22
39613;BME280;25303;48.896;13.342;2023-01-27T00:54:54;92663.94;;;1.04;58.14
39613;BME280;25303;48.896;13.342;2023-01-27T00:57:39;92659.88;;;1.01;58.45
39613;BME280;25303;48.896;13.342;2023-01-27T01:00:21;92659.88;;;1.01;58.35
39613;BME280;25303;48.896;13.342;2023-01-27T01:03:04;92658.75;;;1.05;58.62
39613;BME280;25303;48.896;13.342;2023-01-27T01:05:47;92661.09;;;1.09;58.63
39613;BME280;25303;48.896;13.342;2023-01-27T01:08:31;92666.75;;;1.12;58.64
39613;BME280;25303;48.896;13.342;2023-01-27T01:11:18;92669.78;;;1.17;58.67
39613;BME280;25303;48.896;13.342;2023-01-27T01:14:03;92675.38;;;1.23;58.71
39613;BME280;25303;48.896;13.342;2023-01-27T01:16:46;92666.72;;;1.25;58.73
39613;BME280;25303;48.896;13.342;2023-01-27T01:19:29;92676.34;;;1.33;58.58
39613;BME280;25303;48.896;13.342;2023-01-27T01:22:12;92681.09;;;1.38;58.51
39613;BME280;25303;48.896;13.342;2023-01-27T01:24:55;92673.28;;;1.41;58.60
39613;BME280;25303;48.896;13.342;2023-01-27T01:27:38;92676.31;;;1.46;58.41
39613;BME280;25303;48.896;13.342;2023-01-27T01:30:22;92672.03;;;1.46;58.56
39613;BME280;25303;48.896;13.342;2023-01-27T01:33:06;92676.91;;;1.49;58.43
39613;BME280;25303;48.896;13.342;2023-01-27T01:35:49;92675.06;;;1.51;58.52
39613;BME280;25303;48.896;13.342;2023-01-27T01:38:32;92682.56;;;1.53;58.41
39613;BME280;25303;48.896;13.342;2023-01-27T01:41:17;92682.47;;;1.55;58.33
39613;BME280;25303;48.896;13.342;2023-01-27T01:44:19;92687.25;;;1.46;57.86
39613;BME280;25303;48.896;13.342;2023-01-27T01:47:04;92679.47;;;1.36;57.83
39613;BME280;25303;48.896;13.342;2023-01-27T01:49:47;92681.03;;;1.26;58.27
39613;BME280;25303;48.896;13.342;2023-01-27T01:52:31;92670.78;;;1.28;58.48
39613;BME280;25303;48.896;13.342;2023-01-27T01:55:14;92669.78;;;1.30;58.52
39613;BME280;25303;48.896;13.342;2023-01-27T01:57:56;92672.38;;;1.29;58.17
39613;BME280;25303;48.896;13.342;2023-01-27T02:00:40;92662.44;;;1.26;58.25
39613;BME280;25303;48.896;13.342;2023-01-27T02:03:25;92661.78;;;1.24;58.40
39613;BME280;25303;48.896;13.342;2023-01-27T02:06:10;92660.84;;;1.25;58.25
39613;BME280;25303;48.896;13.342;2023-01-27T02:08:54;92655.75;;;1.25;58.25
39613;BME280;25303;48.896;13.342;2023-01-27T02:11:36;92650.81;;;1.23;58.23
39613;BME280;25303;48.896;13.342;2023-01-27T02:14:22;92648.59;;;1.18;58.33
39613;BME280;25303;48.896;13.342;2023-01-27T02:17:07;92645.47;;;1.15;58.23
39613;BME280;25303;48.896;13.342;2023-01-27T02:19:58;92653.06;;;1.15;58.48
39613;BME280;25303;48.896;13.342;2023-01-27T02:22:48;92651.53;;;1.12;58.37
39613;BME280;25303;48.896;13.342;2023-01-27T02:25:42;92649.91;;;1.11;58.22
39613;BME280;25303;48.896;13.342;2023-01-27T02:28:27;92651.84;;;1.08;58.28
39613;BME280;25303;48.896;13.342;2023-01-27T02:31:10;92654.50;;;1.06;58.30
39613;BME280;25303;48.896;13.342;2023-01-27T02:33:56;92658.44;;;1.10;58.24
39613;BME280;25303;48.896;13.342;2023-01-27T02:36:44;92663.03;;;1.05;58.31
39613;BME280;25303;48.896;13.342;2023-01-27T02:39:32;92660.59;;;1.03;58.30
39613;BME280;25303;48.896;13.342;2023-01-27T02:42:18;92653.09;;;1.02;58.38
39613;BME280;25303;48.896;13.342;2023-01-27T02:45:01;92661.09;;;1.09;58.58
39613;BME280;25303;48.896;13.342;2023-01-27T02:47:44;92657.53;;;1.11;58.51
39613;BME280;25303;48.896;13.342;2023-01-27T02:50:27;92648.09;;;1.13;58.46
39613;BME280;25303;48.896;13.342;2023-01-27T02:53:10;92643.59;;;1.17;58.53
39613;BME280;25303;48.896;13.342;2023-01-27T02:55:53;92653.47;;;1.21;58.57
39613;BME280;25303;48.896;13.342;2023-01-27T02:58:37;92640.34;;;1.28;58.52
39613;BME280;25303;48.896;13.342;2023-01-27T03:01:24;92639.34;;;1.30;58.30
39613;BME280;25303;48.896;13.342;2023-01-27T03:04:07;92641.88;;;1.30;58.28
39613;BME280;25303;48.896;13.342;2023-01-27T03:06:52;92640.97;;;1.31;58.22
39613;BME280;25303;48.896;13.342;2023-01-27T03:09:35;92641.63;;;1.33;58.27
39613;BME280;25303;48.896;13.342;2023-01-27T03:12:18;92637.19;;;1.37;58.33
39613;BME280;25303;48.896;13.342;2023-01-27T03:15:03;92638.69;;;1.40;58.40
39613;BME280;25303;48.896;13.342;2023-01-27T03:18:05;92624.28;;;1.40;58.49
39613;BME280;25303;48.896;13.342;2023-01-27T03:20:59;92630.94;;;1.41;58.42
39613;BME280;25303;48.896;13.342;2023-01-27T03:23:43;92636.03;;;1.41;58.48
39613;BME280;25303;48.896;13.342;2023-01-27T03:26:34;92636.25;;;1.38;58.34
39613;BME280;25303;48.896;13.342;2023-01-27T03:29:20;92630.38;;;1.38;58.56
39613;BME280;25303;48.896;13.342;2023-01-27T03:32:23;92634.66;;;1.37;58.24
39613;BME280;25303;48.896;13.342;2023-01-27T03:35:26;92638.19;;;1.34;58.41
39613;BME280;25303;48.896;13.342;2023-01-27T03:38:15;92636.34;;;1.36;58.50
39613;BME280;25303;48.896;13.342;2023-01-27T03:41:16;92632.81;;;1.39;58.53
39613;BME280;25303;48.896;13.342;2023-01-27T03:44:16;92630.94;;;1.41;58.52
39613;BME280;25303;48.896;13.342;2023-01-27T03:47:16;92633.28;;;1.44;58.43
39613;BME280;25303;48.896;13.342;2023-01-27T03:50:01;92639.28;;;1.43;58.38
39613;BME280;25303;48.896;13.342;2023-01-27T03:52:44;92632.91;;;1.38;58.07
39613;BME280;25303;48.896;13.342;2023-01-27T03:55:43;92634.03;;;1.33;58.47
39613;BME280;25303;48.896;13.342;2023-01-27T03:58:29;92644.16;;;1.33;58.47
39613;BME280;25303;48.896;13.342;2023-01-27T04:01:13;92645.59;;;1.38;58.58
39613;BME280;25303;48.896;13.342;2023-01-27T04:03:56;92645.38;;;1.41;58.71
39613;BME280;25303;48.896;13.342;2023-01-27T04:06:58;92647.13;;;1.40;58.46
39613;BME280;25303;48.896;13.342;2023-01-27T04:09:43;92647.84;;;1.29;57.91
39613;BME280;25303;48.896;13.342;2023-01-27T04:12:26;92659.25;;;1.24;58.05
39613;BME280;25303;48.896;13.342;2023-01-27T04:15:08;92657.31;;;1.14;57.97
39613;BME280;25303;48.896;13.342;2023-01-27T04:17:51;92660.50;;;1.05;58.07
39613;BME280;25303;48.896;13.342;2023-01-27T04:20:34;92655.84;;;0.99;58.11
39613;BME280;25303;48.896;13.342;2023-01-27T04:23:19;92648.44;;;0.96;58.37
39613;BME280;25303;48.896;13.342;2023-01-27T04:26:02;92645.19;;;0.94;58.31
39613;BME280;25303;48.896;13.342;2023-01-27T04:28:45;92650.38;;;0.92;58.51
39613;BME280;25303;48.896;13.342;2023-01-27T04:31:28;92654.03;;;0.88;58.08
39613;BME280;25303;48.896;13.342;2023-01-27T04:34:13;92648.56;;;0.81;58.05
39613;BME280;25303;48.896;13.342;2023-01-27T04:36:56;92652.72;;;0.82;58.21
39613;BME280;25303;48.896;13.342;2023-01-27T04:39:41;92653.81;;;0.78;58.23
39613;BME280;25303;48.896;13.342;2023-01-27T04:42:26;92665.69;;;0.78;58.22
39613;BME280;25303;48.896;13.342;2023-01-27T04:45:09;92654.84;;;0.75;58.35
39613;BME280;25303;48.896;13.342;2023-01-27T04:47:52;92648.88;;;0.77;58.70
39613;BME280;25303;48.896;13.342;2023-01-27T04:50:35;92647.06;;;0.79;58.50
39613;BME280;25303;48.896;13.342;2023-01-27T04:53:18;92647.66;;;0.82;58.64
39613;BME280;25303;48.896;13.342;2023-01-27T04:56:03;92646.53;;;0.86;58.65
39613;BME280;25303;48.896;13.342;2023-01-27T04:58:47;92645.81;;;0.84;58.35
39613;BME280;25303;48.896;13.342;2023-01-27T05:01:30;92641.78;;;0.82;58.27
39613;BME280;25303;48.896;13.342;2023-01-27T05:04:13;92639.84;;;0.85;58.63
39613;BME280;25303;48.896;13.342;2023-01-27T05:06:56;92652.31;;;0.88;58.21
39613;BME280;25303;48.896;13.342;2023-01-27T05:09:39;92650.88;;;0.84;58.20
39613;BME280;25303;48.896;13.342;2023-01-27T05:12:23;92653.53;;;0.83;58.16
39613;BME280;25303;48.896;13.342;2023-01-27T05:15:06;92650.50;;;0.78;58.15
39613;BME280;25303;48.896;13.342;2023-01-27T05:17:49;92662.97;;;0.81;58.18
39613;BME280;25303;48.896;13.342;2023-01-27T05:20:32;92663.88;;;0.80;58.13
39613;BME280;25303;48.896;13.342;2023-01-27T05:23:15;92660.19;;;0.84;58.30
39613;BME280;25303;48.896;13.342;2023-01-27T05:26:17;92668.50;;;0.86;58.30
39613;BME280;25303;48.896;13.342;2023-01-27T05:29:01;92662.22;;;0.91;58.45
39613;BME280;25303;48.896;13.342;2023-01-27T05:31:44;92668.81;;;0.94;58.33
39613;BME280;25303;48.896;13.342;2023-01-27T05:34:27;92676.31;;;0.96;58.30
39613;BME280;25303;48.896;13.342;2023-01-27T05:37:10;92675.50;;;0.95;58.24
39613;BME280;25303;48.896;13.342;2023-01-27T05:39:54;92685.03;;;0.91;58.18
39613;BME280;25303;48.896;13.342;2023-01-27T05:42:37;92676.94;;;0.86;58.15
39613;BME280;25303;48.896;13.342;2023-01-27T05:45:21;92687.06;;;0.86;58.14
39613;BME280;25303;48.896;13.342;2023-01-27T05:48:04;92682.91;;;0.85;58.27
39613;BME280;25303;48.896;13.342;2023-01-27T05:50:57;92693.06;;;0.85;58.18
39613;BME280;25303;48.896;13.342;2023-01-27T05:53:40;92685.53;;;0.84;58.12
39613;BME280;25303;48.896;13.342;2023-01-27T05:56:24;92686.38;;;0.84;58.18
39613;BME280;25303;48.896;13.342;2023-01-27T05:59:09;92675.31;;;0.85;58.32
39613;BME280;25303;48.896;13.342;2023-01-27T06:01:53;92687.06;;;0.86;58.21
39613;BME280;25303;48.896;13.342;2023-01-27T06:04:36;92679.69;;;0.83;58.52
39613;BME280;25303;48.896;13.342;2023-01-27T06:07:19;92681.19;;;0.86;58.12
39613;BME280;25303;48.896;13.342;2023-01-27T06:10:02;92677.75;;;0.87;58.24
39613;BME280;25303;48.896;13.342;2023-01-27T06:12:46;92685.25;;;0.88;58.39
39613;BME280;25303;48.896;13.342;2023-01-27T06:15:29;92683.63;;;0.87;58.29
39613;BME280;25303;48.896;13.342;2023-01-27T06:18:14;92681.91;;;0.88;58.35
39613;BME280;25303;48.896;13.342;2023-01-27T06:20:58;92677.53;;;0.90;58.19
39613;BME280;25303;48.896;13.342;2023-01-27T06:23:41;92676.50;;;0.93;58.35
39613;BME280;25303;48.896;13.342;2023-01-27T06:26:24;92677.84;;;0.85;58.06
39613;BME280;25303;48.896;13.342;2023-01-27T06:29:07;92683.00;;;0.84;58.18
39613;BME280;25303;48.896;13.342;2023-01-27T06:31:50;92677.25;;;0.82;58.18
39613;BME280;25303;48.896;13.342;2023-01-27T06:34:34;92676.63;;;0.78;58.41
39613;BME280;25303;48.896;13.342;2023-01-27T06:37:17;92676.81;;;0.75;58.25
39613;BME280;25303;48.896;13.342;2023-01-27T06:40:00;92675.44;;;0.71;58.25
39613;BME280;25303;48.896;13.342;2023-01-27T06:42:48;92674.41;;;0.73;58.62
39613;BME280;25303;48.896;13.342;2023-01-27T06:45:31;92682.72;;;0.75;58.52
39613;BME280;25303;48.896;13.342;2023-01-27T06:48:14;92669.94;;;0.77;58.45
39613;BME280;25303;48.896;13.342;2023-01-27T06:50:58;92670.06;;;0.75;58.54
39613;BME280;25303;48.896;13.342;2023-01-27T06:53:41;92674.28;;;0.75;58.62
39613;BME280;25303;48.896;13.342;2023-01-27T06:56:24;92684.44;;;0.75;58.63
39613;BME280;25303;48.896;13.342;2023-01-27T06:59:07;92684.44;;;0.75;58.56
39613;BME280;25303;48.896;13.342;2023-01-27T07:01:49;92690.44;;;0.74;58.70
39613;BME280;25303;48.896;13.342;2023-01-27T07:04:34;92689.31;;;0.78;58.69
39613;BME280;25303;48.896;13.342;2023-01-27T07:07:18;92689.09;;;0.81;58.79
39613;BME280;25303;48.896;13.342;2023-01-27T07:10:01;92696.50;;;0.84;58.79
39613;BME280;25303;48.896;13.342;2023-01-27T07:12:43;92693.06;;;0.85;58.67
39613;BME280;25303;48.896;13.342;2023-01-27T07:15:26;92699.84;;;0.85;58.60
39613;BME280;25303;48.896;13.342;2023-01-27T07:18:14;92698.00;;;0.87;58.70
39613;BME280;25303;48.896;13.342;2023-01-27T07:20:57;92705.53;;;0.88;58.80
39613;BME280;25303;48.896;13.342;2023-01-27T07:23:41;92716.06;;;0.95;58.97
39613;BME280;25303;48.896;13.342;2023-01-27T07:26:24;92710.69;;;1.00;58.98
39613;BME280;25303;48.896;13.342;2023-01-27T07:29:07;92716.03;;;1.08;59.02
39613;BME280;25303;48.896;13.342;2023-01-27T07:31:50;92710.75;;;1.11;58.78
39613;BME280;25303;48.896;13.342;2023-01-27T07:34:33;92713.81;;;1.16;58.92
39613;BME280;25303;48.896;13.342;2023-01-27T07:37:16;92715.22;;;1.20;58.94
39613;BME280;25303;48.896;13.342;2023-01-27T07:40:00;92715.03;;;1.24;59.00
39613;BME280;25303;48.896;13.342;2023-01-27T07:42:43;92724.03;;;1.28;58.79
39613;BME280;25303;48.896;13.342;2023-01-27T07:45:29;92735.59;;;1.32;58.81
39613;BME280;25303;48.896;13.342;2023-01-27T07:48:12;92737.72;;;1.38;58.72
39613;BME280;25303;48.896;13.342;2023-01-27T07:50:55;92737.50;;;1.41;58.81
39613;BME280;25303;48.896;13.342;2023-01-27T07:53:37;92747.44;;;1.44;58.74
39613;BME280;25303;48.896;13.342;2023-01-27T07:56:22;92740.31;;;1.49;58.69
39613;BME280;25303;48.896;13.342;2023-01-27T07:59:04;92746.91;;;1.52;58.71
39613;BME280;25303;48.896;13.342;2023-01-27T08:01:47;92743.25;;;1.56;58.64
39613;BME280;25303;48.896;13.342;2023-01-27T08:04:30;92740.38;;;1.61;58.55
39613;BME280;25303;48.896;13.342;2023-01-27T08:07:31;92735.03;;;1.65;58.67
39613;BME280;25303;48.896;13.342;2023-01-27T08:10:15;92737.94;;;1.72;58.70
39613;BME280;25303;48.896;13.342;2023-01-27T08:12:59;92727.47;;;1.77;58.73
39613;BME280;25303;48.896;13.342;2023-01-27T08:15:42;92736.69;;;1.78;58.39
39613;BME280;25303;48.896;13.342;2023-01-27T08:18:25;92745.03;;;1.80;58.49
39613;BME280;25303;48.896;13.342;2023-01-27T08:21:10;92735.47;;;1.84;58.46
39613;BME280;25303;48.896;13.342;2023-01-27T08:23:53;92735.25;;;1.87;58.65
39613;BME280;25303;48.896;13.342;2023-01-27T08:26:36;92734.72;;;1.94;58.55
39613;BME280;25303;48.896;13.342;2023-01-27T08:29:20;92734.38;;;1.99;58.62
39613;BME280;25303;48.896;13.342;2023-01-27T08:32:04;92735.09;;;2.01;58.44
39613;BME280;25303;48.896;13.342;2023-01-27T08:34:47;92732.34;;;2.04;58.34
39613;BME280;25303;48.896;13.342;2023-01-27T08:37:29;92737.41;;;2.04;58.36
39613;BME280;25303;48.896;13.342;2023-01-27T08:40:13;92744.00;;;2.07;58.16
39613;BME280;25303;48.896;13.342;2023-01-27T08:42:56;92745.63;;;2.08;58.22
39613;BME280;25303;48.896;13.342;2023-01-27T08:45:40;92749.88;;;2.07;58.16
39613;BME280;25303;48.896;13.342;2023-01-27T08:48:24;92744.13;;;2.05;58.30
39613;BME280;25303;48.896;13.342;2023-01-27T08:51:07;92744.91;;;2.06;58.12
39613;BME280;25303;48.896;13.342;2023-01-27T08:53:51;92748.00;;;1.98;58.00
39613;BME280;25303;48.896;13.342;2023-01-27T08:56:34;92750.53;;;1.98;58.22
39613;BME280;25303;48.896;13.342;2023-01-27T08:59:17;92755.19;;;2.04;58.25
39613;BME280;25303;48.896;13.342;2023-01-27T09:02:01;92755.19;;;2.04;58.38
39613;BME280;25303;48.896;13.342;2023-01-27T09:04:44;92747.06;;;1.99;57.95
39613;BME280;25303;48.896;13.342;2023-01-27T09:07:27;92747.88;;;2.00;58.33
39613;BME280;25303;48.896;13.342;2023-01-27T09:10:10;92752.16;;;1.99;58.45
39613;BME280;25303;48.896;13.342;2023-01-27T09:13:00;92752.84;;;2.01;58.49
39613;BME280;25303;48.896;13.342;2023-01-27T09:15:43;92764.44;;;2.05;58.47
39613;BME280;25303;48.896;13.342;2023-01-27T09:18:28;92768.13;;;2.12;58.58
39613;BME280;25303;48.896;13.342;2023-01-27T09:21:11;92765.06;;;2.20;58.49
39613;BME280;25303;48.896;13.342;2023-01-27T09:23:54;92771.44;;;2.26;58.44
39613;BME280;25303;48.896;13.342;2023-01-27T09:26:36;92772.75;;;2.32;58.59
39613;BME280;25303;48.896;13.342;2023-01-27T09:29:19;92779.91;;;2.38;58.56
39613;BME280;25303;48.896;13.342;2023-01-27T09:32:02;92776.13;;;2.43;58.51
39613;BME280;25303;48.896;13.342;2023-01-27T09:34:47;92777.66;;;2.46;58.48
39613;BME280;25303;48.896;13.342;2023-01-27T09:37:30;92780.19;;;2.46;58.29
39613;BME280;25303;48.896;13.342;2023-01-27T09:40:28;92776.94;;;2.44;58.32
39613;BME280;25303;48.896;13.342;2023-01-27T09:43:39;92779.56;;;2.42;58.30
39613;BME280;25303;48.896;13.342;2023-01-27T09:46:51;92766.88;;;2.42;58.27
39613;BME280;25303;48.896;13.342;2023-01-27T09:49:50;92773.38;;;2.47;58.27
39613;BME280;25303;48.896;13.342;2023-01-27T09:52:58;92761.78;;;2.42;58.09
39613;BME280;25303;48.896;13.342;2023-01-27T09:55:51;92765.88;;;2.45;58.31
39613;BME280;25303;48.896;13.342;2023-01-27T09:58:47;92765.75;;;2.47;58.30
39613;BME280;25303;48.896;13.342;2023-01-27T10:01:41;92774.06;;;2.49;57.96
39613;BME280;25303;48.896;13.342;2023-01-27T10:04:43;92763.91;;;2.49;58.40
39613;BME280;25303;48.896;13.342;2023-01-27T10:07:55;92764.59;;;2.51;58.32
39613;BME280;25303;48.896;13.342;2023-01-27T10:10:51;92762.44;;;2.57;58.27
39613;BME280;25303;48.896;13.342;2023-01-27T10:13:46;92766.47;;;2.60;58.05
39613;BME280;25303;48.896;13.342;2023-01-27T10:16:51;92764.41;;;2.65;57.96
39613;BME280;25303;48.896;13.342;2023-01-27T10:19:49;92772.19;;;2.75;58.24
39613;BME280;25303;48.896;13.342;2023-01-27T10:22:43;92770.22;;;2.79;57.84
39613;BME280;25303;48.896;13.342;2023-01-27T10:25:37;92776.34;;;2.76;57.63
39613;BME280;25303;48.896;13.342;2023-01-27T10:28:25;92773.91;;;2.74;57.83
39613;BME280;25303;48.896;13.342;2023-01-27T10:31:16;92770.44;;;2.76;57.61
39613;BME280;25303;48.896;13.342;2023-01-27T10:34:07;92777.72;;;2.69;57.37
39613;BME280;25303;48.896;13.342;2023-01-27T10:37:08;92785.09;;;2.61;57.20
39613;BME280;25303;48.896;13.342;2023-01-27T10:40:01;92787.56;;;2.49;56.85
39613;BME280;25303;48.896;13.342;2023-01-27T10:42:53;92784.78;;;2.41;57.01
39613;BME280;25303;48.896;13.342;2023-01-27T10:45:49;92792.25;;;2.31;57.37
39613;BME280;25303;48.896;13.342;2023-01-27T10:48:39;92785.03;;;2.25;57.23
39613;BME280;25303;48.896;13.342;2023-01-27T10:51:27;92777.66;;;2.22;57.17
39613;BME280;25303;48.896;13.342;2023-01-27T10:54:17;92788.78;;;2.08;57.06
39613;BME280;25303;48.896;13.342;2023-01-27T10:57:06;92781.03;;;2.09;56.80
39613;BME280;25303;48.896;13.342;2023-01-27T10:59:56;92781.03;;;2.09;56.81
39613;BME280;25303;48.896;13.342;2023-01-27T11:03:06;92778.41;;;2.11;56.97
39613;BME280;25303;48.896;13.342;2023-01-27T11:05:54;92771.00;;;2.08;57.07
39613;BME280;25303;48.896;13.342;2023-01-27T11:08:40;92785.53;;;2.06;57.63
39613;BME280;25303;48.896;13.342;2023-01-27T11:11:24;92783.31;;;2.01;56.82
39613;BME280;25303;48.896;13.342;2023-01-27T11:14:28;92782.75;;;1.97;56.92
39613;BME280;25303;48.896;13.342;2023-01-27T11:17:27;92779.59;;;1.94;56.94
39613;BME280;25303;48.896;13.342;2023-01-27T11:20:20;92783.28;;;1.90;56.92
39613;BME280;25303;48.896;13.342;2023-01-27T11:23:14;92775.34;;;1.94;56.97
39613;BME280;25303;48.896;13.342;2023-01-27T11:26:03;92777.75;;;1.96;56.54
39613;BME280;25303;48.896;13.342;2023-01-27T11:28:52;92776.13;;;1.95;56.81
39613;BME280;25303;48.896;13.342;2023-01-27T11:31:45;92772.56;;;1.73;56.76
39613;BME280;25303;48.896;13.342;2023-01-27T11:34:38;92767.22;;;1.89;57.00
39613;BME280;25303;48.896;13.342;2023-01-27T11:37:27;92761.09;;;1.92;56.83
39613;BME280;25303;48.896;13.342;2023-01-27T11:40:16;92756.94;;;1.91;56.64
39613;BME280;25303;48.896;13.342;2023-01-27T11:42:59;92757.19;;;1.88;56.46
39613;BME280;25303;48.896;13.342;2023-01-27T11:45:43;92748.56;;;1.77;56.45
39613;BME280;25303;48.896;13.342;2023-01-27T11:48:35;92744.72;;;1.72;56.57
39613;BME280;25303;48.896;13.342;2023-01-27T11:51:25;92754.88;;;1.72;56.57
39613;BME280;25303;48.896;13.342;2023-01-27T11:54:14;92753.06;;;1.74;56.46
39613;BME280;25303;48.896;13.342;2023-01-27T11:56:58;92746.22;;;1.74;56.54
39613;BME280;25303;48.896;13.342;2023-01-27T11:59:41;92752.94;;;1.75;56.52
39613;BME280;25303;48.896;13.342;2023-01-27T12:02:31;92752.47;;;1.70;56.53
39613;BME280;25303;48.896;13.342;2023-01-27T12:05:17;92760.00;;;1.83;56.70
39613;BME280;25303;48.896;13.342;2023-01-27T12:08:03;92757.06;;;1.89;56.71
39613;BME280;25303;48.896;13.342;2023-01-27T12:10:46;92754.69;;;1.99;56.73
39613;BME280;25303;48.896;13.342;2023-01-27T12:13:29;92753.56;;;2.03;56.58
39613;BME280;25303;48.896;13.342;2023-01-27T12:16:12;92749.66;;;2.10;56.69
39613;BME280;25303;48.896;13.342;2023-01-27T12:18:59;92741.41;;;2.20;56.69
39613;BME280;25303;48.896;13.342;2023-01-27T12:21:46;92746.03;;;2.26;56.39
39613;BME280;25303;48.896;13.342;2023-01-27T12:24:34;92744.53;;;2.23;56.16
39613;BME280;25303;48.896;13.342;2023-01-27T12:27:20;92741.28;;;2.21;56.45
39613;BME280;25303;48.896;13.342;2023-01-27T12:30:06;92739.56;;;2.22;56.06
39613;BME280;25303;48.896;13.342;2023-01-27T12:32:57;92745.78;;;2.18;55.57
39613;BME280;25303;48.896;13.342;2023-01-27T12:35:47;92741.94;;;2.12;55.66
39613;BME280;25303;48.896;13.342;2023-01-27T12:38:35;92739.03;;;2.05;55.47
39613;BME280;25303;48.896;13.342;2023-01-27T12:41:24;92726.09;;;2.08;55.89
39613;BME280;25303;48.896;13.342;2023-01-27T12:44:14;92728.75;;;2.07;55.52
39613;BME280;25303;48.896;13.342;2023-01-27T12:47:00;92730.59;;;2.05;55.74
39613;BME280;25303;48.896;13.342;2023-01-27T12:49:43;92724.72;;;2.04;55.57
39613;BME280;25303;48.896;13.342;2023-01-27T12:52:26;92731.63;;;2.02;55.66
39613;BME280;25303;48.896;13.342;2023-01-27T12:55:26;92728.00;;;1.93;55.31
39613;BME280;25303;48.896;13.342;2023-01-27T12:58:30;92723.94;;;1.91;55.31
39613;BME280;25303;48.896;13.342;2023-01-27T13:01:26;92731.78;;;1.88;55.30
39613;BME280;25303;48.896;13.342;2023-01-27T13:04:14;92735.97;;;1.89;55.59
39613;BME280;25303;48.896;13.342;2023-01-27T13:07:04;92733.50;;;1.87;55.81
39613;BME280;25303;48.896;13.342;2023-01-27T13:09:51;92732.50;;;1.90;55.74
39613;BME280;25303;48.896;13.342;2023-01-27T13:12:47;92735.97;;;1.89;55.55
39613;BME280;25303;48.896;13.342;2023-01-27T13:15:32;92731.88;;;1.86;55.65
39613;BME280;25303;48.896;13.342;2023-01-27T13:18:19;92734.53;;;1.85;55.72
39613;BME280;25303;48.896;13.342;2023-01-27T13:21:09;92744.09;;;1.81;55.83
39613;BME280;25303;48.896;13.342;2023-01-27T13:23:54;92744.00;;;1.82;55.69
39613;BME280;25303;48.896;13.342;2023-01-27T13:26:39;92749.28;;;1.79;55.62
39613;BME280;25303;48.896;13.342;2023-01-27T13:29:25;92748.56;;;1.77;55.86
39613;BME280;25303;48.896;13.342;2023-01-27T13:32:17;92745.56;;;1.72;55.62
39613;BME280;25303;48.896;13.342;2023-01-27T13:35:05;92747.19;;;1.73;55.75
39613;BME280;25303;48.896;13.342;2023-01-27T13:38:01;92750.53;;;1.61;55.50
39613;BME280;25303;48.896;13.342;2023-01-27T13:40:45;92749.63;;;1.62;55.91
39613;BME280;25303;48.896;13.342;2023-01-27T13:43:29;92757.56;;;1.57;55.58
39613;BME280;25303;48.896;13.342;2023-01-27T13:46:16;92754.00;;;1.60;55.92
39613;BME280;25303;48.896;13.342;2023-01-27T13:49:28;92755.94;;;1.56;55.95
39613;BME280;25303;48.896;13.342;2023-01-27T13:52:13;92764.59;;;1.54;56.18
39613;BME280;25303;48.896;13.342;2023-01-27T13:54:56;92764.28;;;1.45;56.16
39613;BME280;25303;48.896;13.342;2023-01-27T13:57:53;92761.94;;;1.42;55.94
39613;BME280;25303;48.896;13.342;2023-01-27T14:00:45;92761.88;;;1.18;56.85
39613;BME280;25303;48.896;13.342;2023-01-27T14:03:42;92764.78;;;1.38;56.32
39613;BME280;25303;48.896;13.342;2023-01-27T14:06:36;92758.81;;;1.39;56.37
39613;BME280;25303;48.896;13.342;2023-01-27T14:09:37;92759.00;;;1.35;56.19
39613;BME280;25303;48.896;13.342;2023-01-27T14:12:36;92769.06;;;1.37;55.99
39613;BME280;25303;48.896;13.342;2023-01-27T14:15:25;92766.03;;;1.32;56.21
39613;BME280;25303;48.896;13.342;2023-01-27T14:18:14;92767.44;;;1.36;56.15
39613;BME280;25303;48.896;13.342;2023-01-27T14:21:12;92774.94;;;1.38;56.19
39613;BME280;25303;48.896;13.342;2023-01-27T14:24:01;92764.09;;;1.35;56.24
39613;BME280;25303;48.896;13.342;2023-01-27T14:26:51;92770.19;;;1.33;56.17
39613;BME280;25303;48.896;13.342;2023-01-27T14:29:43;92772.31;;;1.26;56.33
39613;BME280;25303;48.896;13.342;2023-01-27T14:32:31;92773.34;;;1.24;56.46
39613;BME280;25303;48.896;13.342;2023-01-27T14:35:30;92773.56;;;1.20;56.35
39613;BME280;25303;48.896;13.342;2023-01-27T14:38:21;92773.44;;;1.09;56.42
39613;BME280;25303;48.896;13.342;2023-01-27T14:41:15;92775.28;;;1.07;56.65
39613;BME280;25303;48.896;13.342;2023-01-27T14:44:06;92778.50;;;1.09;56.67
39613;BME280;25303;48.896;13.342;2023-01-27T14:47:00;92780.84;;;1.12;56.79